sensor_id;sensor_type;location;lat;lon;timestamp;P1;durP1;ratioP1;P2;durP2;ratioP2
42866;SDS011;39461;40.948;73.006;2023-08-07T03:21:48;9.80;;;4.53;;
42866;SDS011;39461;40.948;73.006;2023-08-07T03:24:25;39.40;;;24.35;;
42866;SDS011;39461;40.948;73.006;2023-08-07T03:26:58;35.60;;;24.58;;
42866;SDS011;39461;40.948;73.006;2023-08-07T03:29:31;43.72;;;34.22;;
42866;SDS011;39461;40.948;73.006;2023-08-07T03:32:06;14.57;;;4.75;;
42866;SDS011;39461;40.948;73.006;2023-08-07T03:34:39;13.88;;;6.70;;
42866;SDS011;39461;40.948;73.006;2023-08-07T03:37:16;17.05;;;6.97;;
42866;SDS011;39461;40.948;73.006;2023-08-07T03:39:49;34.42;;;23.58;;
42866;SDS011;39461;40.948;73.006;2023-08-07T03:42:22;83.07;;;58.97;;
42866;SDS011;39461;40.948;73.006;2023-08-07T03:44:56;8.18;;;4.78;;
42866;SDS011;39461;40.948;73.006;2023-08-07T03:47:25;25.50;;;13.95;;
42866;SDS011;39461;40.948;73.006;2023-08-07T03:49:58;17.70;;;9.02;;
42866;SDS011;39461;40.948;73.006;2023-08-07T03:55:31;10.70;;;3.83;;
42866;SDS011;39461;40.948;73.006;2023-08-07T03:58:10;35.75;;;20.27;;
42866;SDS011;39461;40.948;73.006;2023-08-07T04:00:44;46.47;;;10.32;;
42866;SDS011;39461;40.948;73.006;2023-08-07T04:03:19;25.02;;;11.45;;
42866;SDS011;39461;40.948;73.006;2023-08-07T04:05:53;29.52;;;11.18;;
42866;SDS011;39461;40.948;73.006;2023-08-07T04:08:26;20.75;;;8.30;;
42866;SDS011;39461;40.948;73.006;2023-08-07T04:11:04;12.45;;;5.45;;
42866;SDS011;39461;40.948;73.006;2023-08-07T04:13:40;13.38;;;3.75;;
42866;SDS011;39461;40.948;73.006;2023-08-07T04:16:07;16.00;;;5.07;;
42866;SDS011;39461;40.948;73.006;2023-08-07T04:18:41;9.02;;;3.35;;
42866;SDS011;39461;40.948;73.006;2023-08-07T04:21:16;8.93;;;4.57;;
42866;SDS011;39461;40.948;73.006;2023-08-07T04:24:00;35.05;;;24.25;;
42866;SDS011;39461;40.948;73.006;2023-08-07T04:26:39;12.23;;;5.43;;
42866;SDS011;39461;40.948;73.006;2023-08-07T04:29:14;16.30;;;5.93;;
42866;SDS011;39461;40.948;73.006;2023-08-07T04:31:49;14.15;;;4.07;;
42866;SDS011;39461;40.948;73.006;2023-08-07T04:34:22;11.23;;;3.22;;
42866;SDS011;39461;40.948;73.006;2023-08-07T04:36:57;10.68;;;4.15;;
42866;SDS011;39461;40.948;73.006;2023-08-07T04:39:32;7.28;;;2.80;;
42866;SDS011;39461;40.948;73.006;2023-08-07T04:42:05;7.47;;;2.92;;
42866;SDS011;39461;40.948;73.006;2023-08-07T04:44:38;9.15;;;2.40;;
42866;SDS011;39461;40.948;73.006;2023-08-07T04:47:13;7.82;;;3.20;;
42866;SDS011;39461;40.948;73.006;2023-08-07T04:49:46;4.80;;;2.08;;
42866;SDS011;39461;40.948;73.006;2023-08-07T04:52:21;9.52;;;3.13;;
42866;SDS011;39461;40.948;73.006;2023-08-07T04:54:54;11.05;;;2.53;;
42866;SDS011;39461;40.948;73.006;2023-08-07T04:57:29;3.88;;;2.40;;
42866;SDS011;39461;40.948;73.006;2023-08-07T05:00:02;8.75;;;2.33;;
42866;SDS011;39461;40.948;73.006;2023-08-07T05:02:38;6.32;;;2.15;;
42866;SDS011;39461;40.948;73.006;2023-08-07T05:05:15;6.65;;;2.38;;
42866;SDS011;39461;40.948;73.006;2023-08-07T05:07:50;3.90;;;1.90;;
42866;SDS011;39461;40.948;73.006;2023-08-07T05:10:23;7.47;;;2.90;;
42866;SDS011;39461;40.948;73.006;2023-08-07T05:12:56;6.80;;;2.75;;
42866;SDS011;39461;40.948;73.006;2023-08-07T05:15:33;3.38;;;2.03;;
42866;SDS011;39461;40.948;73.006;2023-08-07T05:18:08;20.48;;;8.93;;
42866;SDS011;39461;40.948;73.006;2023-08-07T05:20:41;7.70;;;3.17;;
42866;SDS011;39461;40.948;73.006;2023-08-07T05:23:17;4.85;;;2.17;;
42866;SDS011;39461;40.948;73.006;2023-08-07T05:25:54;4.00;;;2.30;;
42866;SDS011;39461;40.948;73.006;2023-08-07T05:28:27;4.35;;;2.30;;
42866;SDS011;39461;40.948;73.006;2023-08-07T05:31:02;9.68;;;2.60;;
42866;SDS011;39461;40.948;73.006;2023-08-07T05:33:35;9.52;;;3.50;;
42866;SDS011;39461;40.948;73.006;2023-08-07T05:36:14;7.07;;;2.85;;
42866;SDS011;39461;40.948;73.006;2023-08-07T05:38:49;5.93;;;2.25;;
42866;SDS011;39461;40.948;73.006;2023-08-07T05:41:24;6.47;;;2.00;;
42866;SDS011;39461;40.948;73.006;2023-08-07T05:43:56;5.85;;;1.83;;
42866;SDS011;39461;40.948;73.006;2023-08-07T05:46:29;7.70;;;2.30;;
42866;SDS011;39461;40.948;73.006;2023-08-07T05:49:02;16.17;;;7.80;;
42866;SDS011;39461;40.948;73.006;2023-08-07T05:51:35;19.77;;;8.40;;
42866;SDS011;39461;40.948;73.006;2023-08-07T05:54:14;11.45;;;6.82;;
42866;SDS011;39461;40.948;73.006;2023-08-07T05:56:48;21.23;;;7.90;;
42866;SDS011;39461;40.948;73.006;2023-08-07T05:59:21;30.45;;;12.88;;
42866;SDS011;39461;40.948;73.006;2023-08-07T06:01:56;13.43;;;7.10;;
42866;SDS011;39461;40.948;73.006;2023-08-07T06:04:31;13.40;;;6.05;;
42866;SDS011;39461;40.948;73.006;2023-08-07T06:07:06;13.63;;;6.70;;
42866;SDS011;39461;40.948;73.006;2023-08-07T06:09:45;17.42;;;6.60;;
42866;SDS011;39461;40.948;73.006;2023-08-07T06:12:20;15.85;;;8.18;;
42866;SDS011;39461;40.948;73.006;2023-08-07T06:14:53;15.75;;;6.60;;
42866;SDS011;39461;40.948;73.006;2023-08-07T06:17:29;17.17;;;7.50;;
42866;SDS011;39461;40.948;73.006;2023-08-07T06:20:05;15.55;;;6.85;;
42866;SDS011;39461;40.948;73.006;2023-08-07T06:22:38;15.85;;;6.47;;
42866;SDS011;39461;40.948;73.006;2023-08-07T06:25:14;9.70;;;4.40;;
42866;SDS011;39461;40.948;73.006;2023-08-07T06:27:47;17.00;;;5.40;;
42866;SDS011;39461;40.948;73.006;2023-08-07T06:30:20;15.60;;;5.45;;
42866;SDS011;39461;40.948;73.006;2023-08-07T06:32:55;10.32;;;4.25;;
42866;SDS011;39461;40.948;73.006;2023-08-07T06:35:30;11.00;;;4.38;;
42866;SDS011;39461;40.948;73.006;2023-08-07T06:38:05;14.30;;;4.15;;
42866;SDS011;39461;40.948;73.006;2023-08-07T06:40:38;18.10;;;8.27;;
42866;SDS011;39461;40.948;73.006;2023-08-07T06:43:13;10.68;;;3.92;;
42866;SDS011;39461;40.948;73.006;2023-08-07T06:45:55;8.68;;;4.82;;
42866;SDS011;39461;40.948;73.006;2023-08-07T06:48:32;9.18;;;3.92;;
42866;SDS011;39461;40.948;73.006;2023-08-07T06:51:07;5.40;;;3.38;;
42866;SDS011;39461;40.948;73.006;2023-08-07T06:53:40;9.55;;;3.38;;
42866;SDS011;39461;40.948;73.006;2023-08-07T06:59:17;6.38;;;3.28;;
42866;SDS011;39461;40.948;73.006;2023-08-07T07:01:52;8.80;;;3.83;;
42866;SDS011;39461;40.948;73.006;2023-08-07T07:04:27;7.28;;;2.90;;
42866;SDS011;39461;40.948;73.006;2023-08-07T07:07:02;5.80;;;2.70;;
42866;SDS011;39461;40.948;73.006;2023-08-07T07:09:37;7.90;;;2.67;;
42866;SDS011;39461;40.948;73.006;2023-08-07T07:12:10;8.48;;;3.03;;
42866;SDS011;39461;40.948;73.006;2023-08-07T07:14:43;10.50;;;2.75;;
42866;SDS011;39461;40.948;73.006;2023-08-07T07:17:17;9.25;;;2.50;;
42866;SDS011;39461;40.948;73.006;2023-08-07T07:19:50;10.30;;;3.08;;
42866;SDS011;39461;40.948;73.006;2023-08-07T07:22:26;5.55;;;2.20;;
42866;SDS011;39461;40.948;73.006;2023-08-07T07:25:03;5.13;;;2.03;;
42866;SDS011;39461;40.948;73.006;2023-08-07T07:27:39;10.32;;;2.22;;
42866;SDS011;39461;40.948;73.006;2023-08-07T07:33:17;7.03;;;1.92;;
42866;SDS011;39461;40.948;73.006;2023-08-07T07:35:52;3.72;;;1.92;;
42866;SDS011;39461;40.948;73.006;2023-08-07T07:38:27;8.07;;;1.88;;
42866;SDS011;39461;40.948;73.006;2023-08-07T07:41:00;5.75;;;1.63;;
42866;SDS011;39461;40.948;73.006;2023-08-07T07:43:32;8.68;;;2.00;;
42866;SDS011;39461;40.948;73.006;2023-08-07T07:46:05;8.73;;;2.08;;
42866;SDS011;39461;40.948;73.006;2023-08-07T07:48:41;6.13;;;1.70;;
42866;SDS011;39461;40.948;73.006;2023-08-07T07:51:16;9.85;;;2.30;;
42866;SDS011;39461;40.948;73.006;2023-08-07T07:53:51;8.23;;;2.67;;
42866;SDS011;39461;40.948;73.006;2023-08-07T07:56:26;5.82;;;1.85;;
42866;SDS011;39461;40.948;73.006;2023-08-07T07:59:03;6.88;;;1.80;;
42866;SDS011;39461;40.948;73.006;2023-08-07T08:01:36;4.95;;;1.60;;
42866;SDS011;39461;40.948;73.006;2023-08-07T08:04:11;6.90;;;1.90;;
42866;SDS011;39461;40.948;73.006;2023-08-07T08:06:46;4.88;;;1.80;;
42866;SDS011;39461;40.948;73.006;2023-08-07T08:09:24;6.13;;;2.35;;
42866;SDS011;39461;40.948;73.006;2023-08-07T08:11:59;6.53;;;2.38;;
42866;SDS011;39461;40.948;73.006;2023-08-07T08:14:37;4.97;;;2.72;;
42866;SDS011;39461;40.948;73.006;2023-08-07T08:17:14;9.80;;;3.13;;
42866;SDS011;39461;40.948;73.006;2023-08-07T08:19:51;79.85;;;68.75;;
42866;SDS011;39461;40.948;73.006;2023-08-07T08:22:24;7.25;;;2.97;;
42866;SDS011;39461;40.948;73.006;2023-08-07T08:24:58;8.70;;;2.20;;
42866;SDS011;39461;40.948;73.006;2023-08-07T08:27:36;6.30;;;1.90;;
42866;SDS011;39461;40.948;73.006;2023-08-07T08:30:11;7.03;;;1.90;;
42866;SDS011;39461;40.948;73.006;2023-08-07T08:32:48;8.55;;;1.88;;
42866;SDS011;39461;40.948;73.006;2023-08-07T08:35:21;4.63;;;2.42;;
42866;SDS011;39461;40.948;73.006;2023-08-07T08:37:59;5.30;;;1.90;;
42866;SDS011;39461;40.948;73.006;2023-08-07T08:40:35;6.32;;;1.85;;
42866;SDS011;39461;40.948;73.006;2023-08-07T08:43:12;4.53;;;1.90;;
42866;SDS011;39461;40.948;73.006;2023-08-07T08:45:47;4.95;;;1.88;;
42866;SDS011;39461;40.948;73.006;2023-08-07T08:48:27;17.50;;;12.77;;
42866;SDS011;39461;40.948;73.006;2023-08-07T08:51:06;4.68;;;1.40;;
42866;SDS011;39461;40.948;73.006;2023-08-07T08:53:46;3.30;;;1.95;;
42866;SDS011;39461;40.948;73.006;2023-08-07T08:56:20;8.85;;;4.85;;
42866;SDS011;39461;40.948;73.006;2023-08-07T08:58:56;4.10;;;1.98;;
42866;SDS011;39461;40.948;73.006;2023-08-07T09:01:31;3.25;;;1.48;;
42866;SDS011;39461;40.948;73.006;2023-08-07T09:04:07;4.38;;;1.50;;
42866;SDS011;39461;40.948;73.006;2023-08-07T09:06:42;4.43;;;1.83;;
42866;SDS011;39461;40.948;73.006;2023-08-07T09:09:20;3.42;;;1.60;;
42866;SDS011;39461;40.948;73.006;2023-08-07T09:11:53;4.75;;;1.35;;
42866;SDS011;39461;40.948;73.006;2023-08-07T09:14:27;4.18;;;1.27;;
42866;SDS011;39461;40.948;73.006;2023-08-07T09:17:03;3.55;;;1.23;;
42866;SDS011;39461;40.948;73.006;2023-08-07T09:19:38;3.95;;;1.25;;
42866;SDS011;39461;40.948;73.006;2023-08-07T09:22:13;3.90;;;1.33;;
42866;SDS011;39461;40.948;73.006;2023-08-07T09:24:46;3.58;;;1.00;;
42866;SDS011;39461;40.948;73.006;2023-08-07T09:27:19;2.58;;;0.80;;
42866;SDS011;39461;40.948;73.006;2023-08-07T09:29:55;18.05;;;1.75;;
42866;SDS011;39461;40.948;73.006;2023-08-07T09:32:30;2.30;;;1.10;;
42866;SDS011;39461;40.948;73.006;2023-08-07T09:35:06;2.53;;;1.10;;
42866;SDS011;39461;40.948;73.006;2023-08-07T09:37:43;3.47;;;1.35;;
42866;SDS011;39461;40.948;73.006;2023-08-07T09:40:19;1.88;;;1.20;;
42866;SDS011;39461;40.948;73.006;2023-08-07T09:42:52;2.35;;;1.10;;
42866;SDS011;39461;40.948;73.006;2023-08-07T09:45:27;2.00;;;1.23;;
42866;SDS011;39461;40.948;73.006;2023-08-07T09:48:03;2.65;;;1.20;;
42866;SDS011;39461;40.948;73.006;2023-08-07T09:50:38;2.60;;;1.30;;
42866;SDS011;39461;40.948;73.006;2023-08-07T09:53:12;21.02;;;16.05;;
42866;SDS011;39461;40.948;73.006;2023-08-07T09:55:48;32.65;;;28.02;;
42866;SDS011;39461;40.948;73.006;2023-08-07T09:58:23;3.08;;;1.75;;
42866;SDS011;39461;40.948;73.006;2023-08-07T10:00:59;5.68;;;1.52;;
42866;SDS011;39461;40.948;73.006;2023-08-07T10:03:34;3.47;;;1.50;;
42866;SDS011;39461;40.948;73.006;2023-08-07T10:06:08;10.18;;;2.28;;
42866;SDS011;39461;40.948;73.006;2023-08-07T10:08:42;4.35;;;2.28;;
42866;SDS011;39461;40.948;73.006;2023-08-07T10:11:18;5.60;;;1.63;;
42866;SDS011;39461;40.948;73.006;2023-08-07T10:13:54;2.70;;;1.50;;
42866;SDS011;39461;40.948;73.006;2023-08-07T10:16:29;3.03;;;1.48;;
42866;SDS011;39461;40.948;73.006;2023-08-07T10:19:05;2.60;;;1.40;;
42866;SDS011;39461;40.948;73.006;2023-08-07T10:21:41;5.97;;;1.75;;
42866;SDS011;39461;40.948;73.006;2023-08-07T10:24:14;3.28;;;1.50;;
42866;SDS011;39461;40.948;73.006;2023-08-07T10:26:52;3.80;;;1.35;;
42866;SDS011;39461;40.948;73.006;2023-08-07T10:29:26;3.80;;;1.77;;
42866;SDS011;39461;40.948;73.006;2023-08-07T10:32:00;3.40;;;1.38;;
42866;SDS011;39461;40.948;73.006;2023-08-07T10:34:37;2.80;;;1.30;;
42866;SDS011;39461;40.948;73.006;2023-08-07T10:37:32;3.65;;;1.45;;
42866;SDS011;39461;40.948;73.006;2023-08-07T10:43:38;4.85;;;3.25;;
42866;SDS011;39461;40.948;73.006;2023-08-07T10:48:47;11.52;;;3.30;;
42866;SDS011;39461;40.948;73.006;2023-08-07T10:51:20;6.60;;;2.45;;
42866;SDS011;39461;40.948;73.006;2023-08-07T10:53:56;5.45;;;2.00;;
42866;SDS011;39461;40.948;73.006;2023-08-07T10:56:35;4.28;;;1.98;;
42866;SDS011;39461;40.948;73.006;2023-08-07T10:59:10;2.42;;;1.27;;
42866;SDS011;39461;40.948;73.006;2023-08-07T11:01:54;2.72;;;1.55;;
42866;SDS011;39461;40.948;73.006;2023-08-07T11:04:31;6.40;;;1.77;;
42866;SDS011;39461;40.948;73.006;2023-08-07T11:07:06;3.20;;;1.88;;
42866;SDS011;39461;40.948;73.006;2023-08-07T11:09:41;7.85;;;2.00;;
42866;SDS011;39461;40.948;73.006;2023-08-07T11:12:14;5.75;;;2.20;;
42866;SDS011;39461;40.948;73.006;2023-08-07T11:14:55;12.15;;;4.07;;
42866;SDS011;39461;40.948;73.006;2023-08-07T11:17:28;4.95;;;1.90;;
42866;SDS011;39461;40.948;73.006;2023-08-07T11:20:04;4.03;;;1.85;;
42866;SDS011;39461;40.948;73.006;2023-08-07T11:22:39;7.18;;;1.95;;
42866;SDS011;39461;40.948;73.006;2023-08-07T11:25:12;9.02;;;2.50;;
42866;SDS011;39461;40.948;73.006;2023-08-07T11:27:52;6.65;;;2.15;;
42866;SDS011;39461;40.948;73.006;2023-08-07T11:30:26;6.68;;;1.85;;
42866;SDS011;39461;40.948;73.006;2023-08-07T11:33:04;5.18;;;1.92;;
42866;SDS011;39461;40.948;73.006;2023-08-07T11:35:40;10.25;;;2.30;;
42866;SDS011;39461;40.948;73.006;2023-08-07T11:38:31;5.35;;;2.17;;
42866;SDS011;39461;40.948;73.006;2023-08-07T11:41:06;5.13;;;2.42;;
42866;SDS011;39461;40.948;73.006;2023-08-07T11:43:34;6.63;;;2.08;;
42866;SDS011;39461;40.948;73.006;2023-08-07T11:46:12;4.50;;;2.40;;
42866;SDS011;39461;40.948;73.006;2023-08-07T11:48:44;6.28;;;2.78;;
42866;SDS011;39461;40.948;73.006;2023-08-07T11:51:17;7.82;;;2.60;;
42866;SDS011;39461;40.948;73.006;2023-08-07T11:53:52;6.20;;;1.95;;
42866;SDS011;39461;40.948;73.006;2023-08-07T11:56:28;6.82;;;1.98;;
42866;SDS011;39461;40.948;73.006;2023-08-07T11:59:01;8.77;;;4.63;;
42866;SDS011;39461;40.948;73.006;2023-08-07T12:01:37;7.22;;;2.20;;
42866;SDS011;39461;40.948;73.006;2023-08-07T12:04:12;12.65;;;8.45;;
42866;SDS011;39461;40.948;73.006;2023-08-07T12:06:55;15.75;;;9.25;;
42866;SDS011;39461;40.948;73.006;2023-08-07T12:09:28;9.60;;;2.60;;
42866;SDS011;39461;40.948;73.006;2023-08-07T12:12:03;5.07;;;2.42;;
42866;SDS011;39461;40.948;73.006;2023-08-07T12:14:38;11.30;;;2.92;;
42866;SDS011;39461;40.948;73.006;2023-08-07T12:17:15;8.82;;;2.90;;
42866;SDS011;39461;40.948;73.006;2023-08-07T12:19:49;4.75;;;2.78;;
42866;SDS011;39461;40.948;73.006;2023-08-07T12:22:29;10.85;;;2.97;;
42866;SDS011;39461;40.948;73.006;2023-08-07T12:25:07;9.10;;;2.38;;
42866;SDS011;39461;40.948;73.006;2023-08-07T12:27:42;8.30;;;3.05;;
42866;SDS011;39461;40.948;73.006;2023-08-07T12:30:17;8.35;;;2.55;;
42866;SDS011;39461;40.948;73.006;2023-08-07T12:32:52;6.43;;;2.70;;
42866;SDS011;39461;40.948;73.006;2023-08-07T12:35:25;7.05;;;3.00;;
42866;SDS011;39461;40.948;73.006;2023-08-07T12:37:58;8.63;;;3.33;;
42866;SDS011;39461;40.948;73.006;2023-08-07T12:40:38;9.68;;;3.88;;
42866;SDS011;39461;40.948;73.006;2023-08-07T12:43:11;8.77;;;4.00;;
42866;SDS011;39461;40.948;73.006;2023-08-07T12:45:46;9.38;;;4.38;;
42866;SDS011;39461;40.948;73.006;2023-08-07T12:48:20;12.23;;;4.40;;
42866;SDS011;39461;40.948;73.006;2023-08-07T12:50:47;8.02;;;3.30;;
42866;SDS011;39461;40.948;73.006;2023-08-07T12:53:22;10.70;;;3.63;;
42866;SDS011;39461;40.948;73.006;2023-08-07T12:55:57;10.85;;;3.40;;
42866;SDS011;39461;40.948;73.006;2023-08-07T12:58:33;13.88;;;3.08;;
42866;SDS011;39461;40.948;73.006;2023-08-07T13:01:08;6.32;;;2.92;;
42866;SDS011;39461;40.948;73.006;2023-08-07T13:03:42;7.82;;;2.92;;
42866;SDS011;39461;40.948;73.006;2023-08-07T13:06:22;10.07;;;3.22;;
42866;SDS011;39461;40.948;73.006;2023-08-07T13:08:55;16.45;;;3.72;;
42866;SDS011;39461;40.948;73.006;2023-08-07T13:11:27;10.85;;;3.35;;
42866;SDS011;39461;40.948;73.006;2023-08-07T13:14:01;8.48;;;2.97;;
42866;SDS011;39461;40.948;73.006;2023-08-07T13:16:36;15.23;;;4.28;;
42866;SDS011;39461;40.948;73.006;2023-08-07T13:19:11;12.73;;;4.70;;
42866;SDS011;39461;40.948;73.006;2023-08-07T13:21:46;10.68;;;3.97;;
42866;SDS011;39461;40.948;73.006;2023-08-07T13:27:21;12.25;;;4.30;;
42866;SDS011;39461;40.948;73.006;2023-08-07T13:29:56;7.63;;;3.92;;
42866;SDS011;39461;40.948;73.006;2023-08-07T13:32:32;9.30;;;3.53;;
42866;SDS011;39461;40.948;73.006;2023-08-07T13:35:07;14.85;;;4.78;;
42866;SDS011;39461;40.948;73.006;2023-08-07T13:37:42;7.13;;;3.75;;
42866;SDS011;39461;40.948;73.006;2023-08-07T13:40:17;8.48;;;4.40;;
42866;SDS011;39461;40.948;73.006;2023-08-07T13:42:52;8.20;;;3.70;;
42866;SDS011;39461;40.948;73.006;2023-08-07T13:48:23;11.27;;;4.15;;
42866;SDS011;39461;40.948;73.006;2023-08-07T13:51:02;9.27;;;4.38;;
42866;SDS011;39461;40.948;73.006;2023-08-07T13:53:41;10.35;;;4.82;;
42866;SDS011;39461;40.948;73.006;2023-08-07T13:56:16;11.82;;;6.05;;
42866;SDS011;39461;40.948;73.006;2023-08-07T13:58:49;13.90;;;4.88;;
42866;SDS011;39461;40.948;73.006;2023-08-07T14:01:25;9.52;;;4.95;;
42866;SDS011;39461;40.948;73.006;2023-08-07T14:04:00;11.95;;;4.80;;
42866;SDS011;39461;40.948;73.006;2023-08-07T14:06:35;10.65;;;5.07;;
42866;SDS011;39461;40.948;73.006;2023-08-07T14:09:11;17.15;;;5.15;;
42866;SDS011;39461;40.948;73.006;2023-08-07T14:11:48;15.75;;;5.35;;
42866;SDS011;39461;40.948;73.006;2023-08-07T14:14:23;17.45;;;5.32;;
42866;SDS011;39461;40.948;73.006;2023-08-07T14:16:58;19.00;;;5.75;;
42866;SDS011;39461;40.948;73.006;2023-08-07T14:19:35;23.13;;;5.68;;
42866;SDS011;39461;40.948;73.006;2023-08-07T14:22:10;25.85;;;6.03;;
42866;SDS011;39461;40.948;73.006;2023-08-07T14:24:45;25.88;;;7.20;;
42866;SDS011;39461;40.948;73.006;2023-08-07T14:27:20;18.00;;;6.07;;
42866;SDS011;39461;40.948;73.006;2023-08-07T14:29:55;13.48;;;5.63;;
42866;SDS011;39461;40.948;73.006;2023-08-07T14:32:31;16.02;;;6.00;;
42866;SDS011;39461;40.948;73.006;2023-08-07T14:35:06;23.77;;;8.90;;
42866;SDS011;39461;40.948;73.006;2023-08-07T14:37:41;31.17;;;10.63;;
42866;SDS011;39461;40.948;73.006;2023-08-07T14:40:20;29.98;;;9.40;;
42866;SDS011;39461;40.948;73.006;2023-08-07T14:42:55;31.08;;;10.85;;
42866;SDS011;39461;40.948;73.006;2023-08-07T14:45:30;23.90;;;11.77;;
42866;SDS011;39461;40.948;73.006;2023-08-07T14:48:05;66.40;;;29.30;;
42866;SDS011;39461;40.948;73.006;2023-08-07T14:50:38;79.97;;;41.22;;
42866;SDS011;39461;40.948;73.006;2023-08-07T14:53:11;86.68;;;45.03;;
42866;SDS011;39461;40.948;73.006;2023-08-07T14:55:46;70.90;;;34.45;;
42866;SDS011;39461;40.948;73.006;2023-08-07T14:58:19;52.60;;;22.85;;
42866;SDS011;39461;40.948;73.006;2023-08-07T15:00:54;61.03;;;20.75;;
42866;SDS011;39461;40.948;73.006;2023-08-07T15:03:30;60.83;;;19.48;;
42866;SDS011;39461;40.948;73.006;2023-08-07T15:06:05;62.47;;;21.67;;
42866;SDS011;39461;40.948;73.006;2023-08-07T15:08:40;41.53;;;14.50;;
42866;SDS011;39461;40.948;73.006;2023-08-07T15:11:16;36.70;;;12.98;;
42866;SDS011;39461;40.948;73.006;2023-08-07T15:13:49;34.63;;;11.68;;
42866;SDS011;39461;40.948;73.006;2023-08-07T15:16:24;31.20;;;11.80;;
42866;SDS011;39461;40.948;73.006;2023-08-07T15:18:58;36.92;;;13.40;;
42866;SDS011;39461;40.948;73.006;2023-08-07T15:21:34;38.13;;;13.55;;
42866;SDS011;39461;40.948;73.006;2023-08-07T15:24:09;34.88;;;12.65;;
42866;SDS011;39461;40.948;73.006;2023-08-07T15:26:44;26.38;;;12.00;;
42866;SDS011;39461;40.948;73.006;2023-08-07T15:35:19;48.90;;;18.02;;
42866;SDS011;39461;40.948;73.006;2023-08-07T15:37:52;44.20;;;16.60;;
42866;SDS011;39461;40.948;73.006;2023-08-07T15:40:27;35.88;;;15.73;;
42866;SDS011;39461;40.948;73.006;2023-08-07T15:42:54;34.33;;;15.10;;
42866;SDS011;39461;40.948;73.006;2023-08-07T15:45:30;40.15;;;14.55;;
42866;SDS011;39461;40.948;73.006;2023-08-07T15:47:57;38.75;;;14.40;;
42866;SDS011;39461;40.948;73.006;2023-08-07T15:50:30;32.83;;;10.80;;
42866;SDS011;39461;40.948;73.006;2023-08-07T15:53:10;24.90;;;10.45;;
42866;SDS011;39461;40.948;73.006;2023-08-07T15:55:45;23.10;;;9.75;;
42866;SDS011;39461;40.948;73.006;2023-08-07T15:58:20;32.33;;;12.50;;
42866;SDS011;39461;40.948;73.006;2023-08-07T16:00:56;33.42;;;13.50;;
42866;SDS011;39461;40.948;73.006;2023-08-07T16:03:31;33.65;;;14.57;;
42866;SDS011;39461;40.948;73.006;2023-08-07T16:06:09;29.25;;;12.60;;
42866;SDS011;39461;40.948;73.006;2023-08-07T16:08:44;33.88;;;12.93;;
42866;SDS011;39461;40.948;73.006;2023-08-07T16:11:20;30.35;;;14.23;;
42866;SDS011;39461;40.948;73.006;2023-08-07T16:14:00;36.10;;;15.60;;
42866;SDS011;39461;40.948;73.006;2023-08-07T16:16:35;41.70;;;16.02;;
42866;SDS011;39461;40.948;73.006;2023-08-07T16:19:12;40.97;;;14.55;;
42866;SDS011;39461;40.948;73.006;2023-08-07T16:21:47;26.75;;;14.32;;
42866;SDS011;39461;40.948;73.006;2023-08-07T16:27:21;40.53;;;15.07;;
42866;SDS011;39461;40.948;73.006;2023-08-07T16:29:54;31.25;;;15.75;;
42866;SDS011;39461;40.948;73.006;2023-08-07T16:32:27;28.88;;;15.23;;
42866;SDS011;39461;40.948;73.006;2023-08-07T16:35:02;39.80;;;16.92;;
42866;SDS011;39461;40.948;73.006;2023-08-07T16:37:39;45.63;;;16.20;;
42866;SDS011;39461;40.948;73.006;2023-08-07T16:40:13;41.75;;;14.63;;
42866;SDS011;39461;40.948;73.006;2023-08-07T16:42:46;30.30;;;12.60;;
42866;SDS011;39461;40.948;73.006;2023-08-07T16:45:20;22.45;;;10.38;;
42866;SDS011;39461;40.948;73.006;2023-08-07T16:47:58;23.05;;;10.13;;
42866;SDS011;39461;40.948;73.006;2023-08-07T16:50:32;35.35;;;10.50;;
42866;SDS011;39461;40.948;73.006;2023-08-07T16:53:07;18.17;;;7.72;;
42866;SDS011;39461;40.948;73.006;2023-08-07T16:55:40;16.70;;;7.95;;
42866;SDS011;39461;40.948;73.006;2023-08-07T16:58:15;21.23;;;11.05;;
42866;SDS011;39461;40.948;73.006;2023-08-07T17:00:48;38.38;;;15.88;;
42866;SDS011;39461;40.948;73.006;2023-08-07T17:03:26;40.17;;;20.15;;
42866;SDS011;39461;40.948;73.006;2023-08-07T17:05:59;54.03;;;25.13;;
42866;SDS011;39461;40.948;73.006;2023-08-07T17:08:32;63.30;;;26.95;;
42866;SDS011;39461;40.948;73.006;2023-08-07T17:11:02;52.83;;;23.15;;
42866;SDS011;39461;40.948;73.006;2023-08-07T17:13:37;53.90;;;23.75;;
42866;SDS011;39461;40.948;73.006;2023-08-07T17:16:16;42.97;;;19.10;;
42866;SDS011;39461;40.948;73.006;2023-08-07T17:18:50;39.83;;;15.73;;
42866;SDS011;39461;40.948;73.006;2023-08-07T17:21:23;23.83;;;10.52;;
42866;SDS011;39461;40.948;73.006;2023-08-07T17:23:56;23.85;;;9.50;;
42866;SDS011;39461;40.948;73.006;2023-08-07T17:26:29;18.35;;;8.73;;
42866;SDS011;39461;40.948;73.006;2023-08-07T17:29:02;24.83;;;11.35;;
42866;SDS011;39461;40.948;73.006;2023-08-07T17:31:35;23.50;;;11.30;;
42866;SDS011;39461;40.948;73.006;2023-08-07T17:34:08;25.30;;;8.95;;
42866;SDS011;39461;40.948;73.006;2023-08-07T17:36:35;35.15;;;9.45;;
42866;SDS011;39461;40.948;73.006;2023-08-07T17:39:08;26.75;;;12.00;;
42866;SDS011;39461;40.948;73.006;2023-08-07T17:41:43;30.85;;;11.75;;
42866;SDS011;39461;40.948;73.006;2023-08-07T17:44:15;22.33;;;9.43;;
42866;SDS011;39461;40.948;73.006;2023-08-07T17:46:44;25.83;;;7.50;;
42866;SDS011;39461;40.948;73.006;2023-08-07T17:49:21;15.90;;;7.22;;
42866;SDS011;39461;40.948;73.006;2023-08-07T17:51:56;14.60;;;6.20;;
42866;SDS011;39461;40.948;73.006;2023-08-07T17:54:32;16.55;;;6.80;;
42866;SDS011;39461;40.948;73.006;2023-08-07T17:57:09;19.63;;;4.90;;
42866;SDS011;39461;40.948;73.006;2023-08-07T17:59:45;15.48;;;5.07;;
42866;SDS011;39461;40.948;73.006;2023-08-07T18:02:20;14.82;;;5.03;;
42866;SDS011;39461;40.948;73.006;2023-08-07T18:04:55;18.25;;;5.32;;
42866;SDS011;39461;40.948;73.006;2023-08-07T18:07:30;11.85;;;4.70;;
42866;SDS011;39461;40.948;73.006;2023-08-07T18:10:06;11.65;;;4.05;;
42866;SDS011;39461;40.948;73.006;2023-08-07T18:12:42;12.88;;;4.10;;
42866;SDS011;39461;40.948;73.006;2023-08-07T18:15:17;10.68;;;3.67;;
42866;SDS011;39461;40.948;73.006;2023-08-07T18:17:52;14.35;;;3.92;;
42866;SDS011;39461;40.948;73.006;2023-08-07T18:20:27;13.80;;;4.30;;
42866;SDS011;39461;40.948;73.006;2023-08-07T18:23:02;11.55;;;3.88;;
42866;SDS011;39461;40.948;73.006;2023-08-07T18:25:38;14.40;;;4.65;;
42866;SDS011;39461;40.948;73.006;2023-08-07T18:28:19;12.18;;;4.10;;
42866;SDS011;39461;40.948;73.006;2023-08-07T18:30:52;16.60;;;4.75;;
42866;SDS011;39461;40.948;73.006;2023-08-07T18:33:27;12.60;;;4.53;;
42866;SDS011;39461;40.948;73.006;2023-08-07T18:36:00;13.70;;;4.40;;
42866;SDS011;39461;40.948;73.006;2023-08-07T18:38:34;16.85;;;4.40;;
42866;SDS011;39461;40.948;73.006;2023-08-07T18:41:07;13.23;;;4.63;;
42866;SDS011;39461;40.948;73.006;2023-08-07T18:43:40;14.45;;;4.38;;
42866;SDS011;39461;40.948;73.006;2023-08-07T18:46:13;8.35;;;4.18;;
42866;SDS011;39461;40.948;73.006;2023-08-07T18:48:48;11.98;;;4.32;;
42866;SDS011;39461;40.948;73.006;2023-08-07T18:51:22;14.07;;;5.00;;
42866;SDS011;39461;40.948;73.006;2023-08-07T18:53:56;15.48;;;4.63;;
42866;SDS011;39461;40.948;73.006;2023-08-07T18:56:29;15.15;;;4.25;;
42866;SDS011;39461;40.948;73.006;2023-08-07T18:59:02;11.75;;;4.65;;